WB0VAK Weather Reports


time (UTC)temp
F
wind
direction
speed
knots
gust
knots
rain 1hr
in
rain 24hr
in
rain mn
in
humidity
%
barometer
mb
20260505173022 47 328 4.3 13.9 0.00 0.00 0.00 50 1011.2
20260505171524 50 331 6.1 12.2 0.00 0.00 0.00 48 1011.1
20260505170021 49 322 3.5 17.4 0.00 0.00 0.00 51 1011.2
20260505164516 47 333 7.0 15.6 0.00 0.00 0.00 50 1011.3
20260505163016 47 340 4.3 13.9 0.00 0.00 0.00 51 1011.2
20260505161515 47 317 6.1 10.4 0.00 0.00 0.00 51 1011.3
20260505153010 46 315 3.5 15.6 0.00 0.00 0.00 53 1011.1
20260505151508 47 339 4.3 13.0 0.00 0.00 0.00 53 1010.9
20260505130106 42 315 2.6 7.0 0.00 0.00 0.00 66 1010.2
20260505124552 41 330 2.6 5.2 0.00 0.00 0.00 67 1010.0
20260505123045 41 328 0.0 0.9 0.00 0.00 0.00 68 1009.9
20260505121539 39 242 0.0 0.9 0.00 0.00 0.00 71 1009.7
20260505120035 37 248 0.0 0.0 0.00 0.00 0.00 72 1009.4
20260505114533 36 283 0.0 0.0 0.00 0.00 0.00 72 1009.1
20260505113031 34 284 0.0 0.0 0.00 0.00 0.00 74 1008.7
20260505111535 33 284 0.0 0.0 0.00 0.00 0.00 76 1008.3
20260505101520 33 79 0.0 0.9 0.00 0.00 0.00 77 1007.6
20260505100027 33 288 0.0 0.9 0.00 0.00 0.00 76 1007.6
20260505094519 33 316 0.0 0.9 0.00 0.00 0.00 77 1007.7
20260505093018 32 224 0.0 0.0 0.00 0.00 0.00 76 1007.7
20260505091516 33 225 0.0 0.0 0.00 0.00 0.00 75 1007.5
20260505090014 33 244 0.0 0.0 0.00 0.00 0.00 75 1007.3
20260505084517 34 244 0.0 0.0 0.00 0.00 0.00 74 1007.0
20260505083013 35 244 0.0 0.9 0.00 0.00 0.00 73 1006.8
20260505081508 35 233 0.0 0.9 0.00 0.00 0.00 73 1006.6
20260505080006 35 233 0.0 0.9 0.00 0.00 0.00 74 1006.5
20260505074505 34 233 0.0 0.9 0.00 0.00 0.00 73 1006.5
20260505073005 34 248 0.0 0.9 0.00 0.00 0.00 73 1006.4
20260505071506 35 274 0.0 0.0 0.00 0.00 0.00 71 1006.4
20260505070112 36 274 0.0 0.0 0.00 0.00 0.00 70 1006.4
20260505064559 36 49 0.0 0.9 0.00 0.00 0.00 69 1006.5
20260505063054 37 18 0.0 0.9 0.00 0.00 0.00 68 1006.4
20260505061557 38 354 0.0 0.9 0.00 0.00 0.00 66 1006.4
20260505060049 39 357 0.0 0.9 0.00 0.00 0.00 65 1006.5
20260505054553 39 65 0.0 0.9 0.00 0.00 0.00 65 1006.3
20260505053055 39 334 0.0 0.0 0.00 0.00 0.00 66 1006.3
20260505051545 39 96 0.0 0.0 0.00 0.00 0.00 65 1006.3
20260505041536 39 304 0.0 0.0 0.00 0.00 0.00 63 1006.1
20260505040040 40 304 0.0 0.0 0.00 0.00 0.00 62 1006.2
20260505034529 41 304 0.0 0.0 0.00 0.00 0.00 60 1006.2
20260505033031 43 304 0.0 1.7 0.00 0.00 0.00 58 1006.2
20260505031522 44 322 0.9 3.5 0.00 0.00 0.00 56 1006.2
20260505030025 45 338 3.5 7.8 0.00 0.00 0.00 55 1006.1
20260505024515 46 316 6.1 11.3 0.00 0.00 0.00 53 1005.9
20260505023018 47 335 8.7 14.8 0.00 0.00 0.00 53 1005.6
20260505021509 48 329 13.0 22.6 0.00 0.00 0.00 51 1005.1
20260505020004 49 332 11.3 18.2 0.00 0.00 0.00 51 1004.8
20260505014502 49 326 11.3 18.2 0.00 0.00 0.00 51 1004.4
20260505013102 49 264 6.1 12.2 0.00 0.00 0.00 50 1004.1
20260505011556 50 339 6.1 19.1 0.00 0.00 0.00 49 1003.8
20260505010100 51 329 11.3 19.1 0.00 0.00 0.00 49 1003.5
20260505004550 51 330 5.2 14.8 0.00 0.00 0.00 49 1003.2
20260505003046 52 326 8.7 21.7 0.00 0.00 0.00 49 1003.1
20260505001543 53 331 4.3 15.6 0.00 0.00 0.00 49 1002.8
20260505000041 53 293 4.3 18.2 0.00 0.00 0.00 48 1002.7
20260504234539 54 287 5.2 23.5 0.00 0.00 0.00 48 1002.4
20260504233042 56 329 7.0 13.0 0.00 0.00 0.00 47 1002.3
20260504231535 57 327 12.2 20.0 0.00 0.00 0.00 46 1002.1
20260504230034 58 309 9.6 19.1 0.00 0.00 0.00 45 1001.9
20260504224534 59 299 7.8 18.2 0.00 0.00 0.00 43 1001.6
20260504223033 60 347 6.1 14.8 0.00 0.00 0.00 44 1001.3
20260504221536 61 10 1.7 20.0 0.00 0.00 0.00 43 1001.0
20260504220033 61 347 2.6 12.2 0.00 0.00 0.00 43 1000.8
20260504214533 60 332 13.0 20.9 0.00 0.00 0.00 40 1000.6
20260504213031 61 249 3.5 14.8 0.00 0.00 0.00 42 1000.5
20260504211531 62 247 5.2 12.2 0.00 0.00 0.00 41 1000.3
20260504210031 62 327 7.8 20.0 0.00 0.00 0.00 40 1000.3
20260504204530 62 324 7.0 21.7 0.00 0.00 0.00 39 1000.3
20260504203032 62 345 5.2 14.8 0.00 0.00 0.00 39 1000.5
20260504201528 63 307 5.2 25.2 0.00 0.00 0.00 37 1000.5
20260504200037 63 355 7.0 19.1 0.00 0.00 0.00 37 1000.3
20260504194526 63 23 4.3 13.0 0.00 0.00 0.00 35 1000.1
20260504193026 63 325 4.3 10.4 0.00 0.00 0.00 34 1000.1
20260504191537 63 346 5.2 33.0 0.00 0.00 0.00 34 999.8
20260504190024 64 300 3.5 13.0 0.00 0.00 0.00 38 999.8
20260504184522 63 346 5.2 13.0 0.00 0.00 0.00 41 999.5
20260504183036 63 3 6.1 14.8 0.00 0.00 0.00 40 999.5
20260504181526 64 336 5.2 13.0 0.00 0.00 0.00 42 999.1
20260504180022 63 144 1.7 15.6 0.00 0.00 0.00 41 999.0
20260504174522 64 347 5.2 13.9 0.00 0.00 0.00 42 998.7